Time;durP1;ratioP1;P1;durP2;ratioP2;P2;SDS_P1;SDS_P2;PMS_P1;PMS_P2;Temp;Humidity;BMP_temperature;BMP_pressure;BME280_temperature;BME280_humidity;BME280_pressure;Samples;Min_cycle;Max_cycle;Signal;HPM_P1;HPM_P2
2023/11/23 00:01:20;;;;;;;9.82;4.78;;;-0.50;99.90;;;;;;4950220;28;20778;-71
2023/11/23 00:03:47;;;;;;;6.15;3.90;;;-0.60;99.90;;;;;;4950983;28;20595;-71
2023/11/23 00:06:13;;;;;;;5.57;4.18;;;-0.60;99.90;;;;;;4949990;28;20215;-71
2023/11/23 00:08:41;;;;;;;6.45;4.65;;;-0.60;99.90;;;;;;4950654;28;20212;-71
2023/11/23 00:11:09;;;;;;;5.38;3.55;;;-0.60;99.90;;;;;;4950960;28;20232;-71
2023/11/23 00:13:36;;;;;;;8.15;4.25;;;-0.60;99.90;;;;;;4953858;28;20243;-71
2023/11/23 04:32:19;;;;;;;6.57;3.60;;;-0.30;99.90;;;;;;5225180;23;20222;-92
2023/11/23 04:34:48;;;;;;;6.18;4.80;;;-0.30;99.90;;;;;;4998646;28;20208;-93
2023/11/23 04:37:15;;;;;;;11.80;5.13;;;-0.30;99.90;;;;;;4994470;23;20240;-72
2023/11/23 04:39:42;;;;;;;7.13;3.70;;;-0.30;99.90;;;;;;4969651;28;20586;-73
2023/11/23 04:42:09;;;;;;;9.55;3.75;;;-0.30;99.90;;;;;;4956432;28;20235;-72
2023/11/23 04:44:36;;;;;;;6.22;4.43;;;-0.30;99.90;;;;;;4947367;28;20205;-72
2023/11/23 04:47:03;;;;;;;6.47;3.90;;;-0.30;99.90;;;;;;4942356;28;20673;-72
2023/11/23 04:49:32;;;;;;;6.07;4.50;;;-0.40;99.90;;;;;;4941580;28;20213;-72
2023/11/23 04:51:58;;;;;;;8.05;5.13;;;-0.40;99.90;;;;;;4940171;28;20260;-72
2023/11/23 04:54:25;;;;;;;8.77;4.38;;;-0.40;99.90;;;;;;4938548;28;20205;-74
2023/11/23 04:56:52;;;;;;;7.68;4.13;;;-0.40;99.90;;;;;;4938409;28;20208;-73
2023/11/23 04:59:20;;;;;;;5.05;4.53;;;-0.40;99.90;;;;;;4940285;28;20205;-73
2023/11/23 05:01:47;;;;;;;7.35;4.30;;;-0.40;99.90;;;;;;4942320;28;20225;-73
2023/11/23 05:04:14;;;;;;;7.45;3.42;;;-0.40;99.90;;;;;;4941025;28;20216;-73
2023/11/23 05:06:42;;;;;;;7.45;4.72;;;-0.40;99.90;;;;;;4948974;28;20212;-73
2023/11/23 05:09:09;;;;;;;6.70;6.10;;;-0.40;99.90;;;;;;4949024;28;20213;-71
2023/11/23 05:11:35;;;;;;;5.47;3.58;;;-0.40;99.90;;;;;;4946738;28;20235;-72
2023/11/23 05:14:06;;;;;;;5.15;3.53;;;-0.40;99.90;;;;;;4940587;28;20212;-72
2023/11/23 05:16:33;;;;;;;4.07;3.40;;;-0.50;99.90;;;;;;4940166;28;20702;-71
2023/11/23 05:19:00;;;;;;;5.93;3.47;;;-0.40;99.90;;;;;;4943527;28;20204;-71
2023/11/23 05:21:26;;;;;;;5.93;3.28;;;-0.40;99.90;;;;;;4940673;28;20244;-70
2023/11/23 05:23:55;;;;;;;6.78;3.90;;;-0.40;99.90;;;;;;4943747;28;20209;-71
2023/11/23 05:26:21;;;;;;;5.18;3.47;;;-0.40;99.90;;;;;;4943103;28;20237;-72
2023/11/23 05:28:48;;;;;;;3.65;2.72;;;-0.40;99.90;;;;;;4950439;28;20212;-72
2023/11/23 05:31:15;;;;;;;8.02;3.85;;;-0.30;99.90;;;;;;4955770;28;20252;-72
2023/11/23 05:33:42;;;;;;;4.47;3.83;;;-0.30;99.90;;;;;;4953398;28;20220;-72
2023/11/23 05:36:11;;;;;;;4.45;3.40;;;-0.30;99.90;;;;;;4954248;28;20212;-72
2023/11/23 05:38:38;;;;;;;8.90;4.55;;;-0.30;99.90;;;;;;4955227;28;20585;-71
2023/11/23 05:41:06;;;;;;;5.93;3.50;;;-0.30;99.90;;;;;;4955079;28;20224;-72
2023/11/23 05:43:33;;;;;;;5.57;3.20;;;-0.20;99.90;;;;;;4955051;28;20689;-71
2023/11/23 05:46:00;;;;;;;5.65;3.63;;;-0.30;99.90;;;;;;4954394;28;20216;-73
2023/11/23 05:48:26;;;;;;;7.15;3.22;;;-0.30;99.90;;;;;;4955063;28;20268;-72
2023/11/23 05:50:53;;;;;;;5.63;3.38;;;-0.20;99.90;;;;;;4954742;28;20774;-72
2023/11/23 05:53:20;;;;;;;5.85;3.42;;;-0.20;99.90;;;;;;4954983;28;20579;-72
2023/11/23 05:55:47;;;;;;;5.78;3.30;;;-0.20;99.90;;;;;;4954473;28;20201;-72
2023/11/23 05:58:15;;;;;;;5.20;3.45;;;-0.20;99.90;;;;;;4954933;28;20208;-72
2023/11/23 06:00:42;;;;;;;4.80;2.80;;;-0.20;99.90;;;;;;4951493;28;20240;-72
2023/11/23 06:03:09;;;;;;;4.93;3.83;;;-0.20;99.90;;;;;;4957909;28;20215;-73
2023/11/23 06:05:36;;;;;;;6.05;3.72;;;-0.20;99.90;;;;;;4947706;28;20236;-72
2023/11/23 06:08:03;;;;;;;5.40;3.10;;;-0.20;99.90;;;;;;4957082;28;20205;-72
2023/11/23 06:10:33;;;;;;;5.75;4.90;;;-0.20;99.90;;;;;;4954255;28;20304;-72
2023/11/23 06:13:00;;;;;;;3.83;3.03;;;-0.30;99.90;;;;;;4954325;28;20825;-72
2023/11/23 06:15:28;;;;;;;5.80;4.22;;;-0.20;99.90;;;;;;4954107;28;20212;-72
2023/11/23 06:17:55;;;;;;;7.93;5.05;;;-0.30;99.90;;;;;;4954287;28;20213;-73
2023/11/23 06:20:22;;;;;;;5.13;3.60;;;-0.30;99.90;;;;;;4954658;28;20209;-73
2023/11/23 06:22:50;;;;;;;7.38;3.22;;;-0.20;99.90;;;;;;4954270;28;20636;-72
2023/11/23 06:25:17;;;;;;;6.07;2.90;;;-0.20;99.90;;;;;;4951067;28;20243;-72
2023/11/23 06:27:46;;;;;;;4.65;3.33;;;-0.30;99.90;;;;;;4955092;28;20241;-72
2023/11/23 06:30:14;;;;;;;6.53;3.63;;;-0.30;99.90;;;;;;4954781;28;20232;-73
2023/11/23 06:32:44;;;;;;;4.78;3.00;;;-0.30;99.90;;;;;;4953594;28;20485;-73
2023/11/23 06:35:11;;;;;;;6.63;3.28;;;-0.30;99.90;;;;;;4954389;28;20204;-72
2023/11/23 06:37:38;;;;;;;3.83;2.75;;;-0.20;99.90;;;;;;4951078;28;20259;-73
2023/11/23 06:40:07;;;;;;;6.00;3.15;;;-0.20;99.90;;;;;;4953804;28;20219;-73
2023/11/23 06:42:34;;;;;;;3.35;2.60;;;-0.20;99.90;;;;;;4955282;28;20224;-72
2023/11/23 06:45:01;;;;;;;5.43;4.10;;;-0.20;99.90;;;;;;4955744;28;20665;-73
2023/11/23 06:47:29;;;;;;;5.10;3.15;;;-0.20;99.90;;;;;;4952550;28;20213;-72
2023/11/23 06:49:57;;;;;;;5.32;3.05;;;-0.20;99.90;;;;;;4955909;28;20272;-73
2023/11/23 06:52:25;;;;;;;3.05;2.35;;;-0.20;99.90;;;;;;4955976;28;20232;-72
2023/11/23 06:54:53;;;;;;;3.22;2.78;;;-0.20;99.90;;;;;;4950976;28;20259;-72
2023/11/23 06:57:39;;;;;;;4.68;3.15;;;-0.10;99.90;;;;;;4953352;28;20303;-72
2023/11/23 07:00:16;;;;;;;3.03;2.28;;;-0.10;99.90;;;;;;4947560;28;21201;-72
2023/11/23 07:02:42;;;;;;;4.50;4.10;;;0.00;99.90;;;;;;4949449;28;20212;-73
2023/11/23 07:05:11;;;;;;;3.85;3.30;;;0.00;99.90;;;;;;4953195;28;20205;-72
2023/11/23 07:07:38;;;;;;;3.47;3.03;;;0.10;99.90;;;;;;4953318;28;20201;-73
2023/11/23 07:10:06;;;;;;;4.50;3.05;;;0.10;99.90;;;;;;4952527;28;20695;-73
2023/11/23 07:12:33;;;;;;;3.55;2.58;;;0.10;99.90;;;;;;4953306;28;20287;-74
2023/11/23 07:14:59;;;;;;;3.40;2.97;;;0.10;99.90;;;;;;4952748;28;20208;-72
2023/11/23 07:17:26;;;;;;;3.80;2.58;;;0.10;99.90;;;;;;4952716;28;20208;-74
2023/11/23 07:19:53;;;;;;;4.10;2.70;;;0.10;99.90;;;;;;4953220;28;20588;-74
2023/11/23 07:22:21;;;;;;;4.05;3.58;;;0.10;99.90;;;;;;4952284;28;20243;-74
2023/11/23 07:24:47;;;;;;;2.50;2.30;;;0.10;99.90;;;;;;4952548;28;20228;-74
2023/11/23 07:27:13;;;;;;;5.47;3.75;;;0.10;99.90;;;;;;4949427;28;20212;-72
2023/11/23 07:29:40;;;;;;;3.13;2.10;;;0.20;99.90;;;;;;4953001;28;20689;-73
2023/11/23 07:32:08;;;;;;;6.32;2.85;;;0.20;99.90;;;;;;4952491;28;20502;-73
2023/11/23 07:34:35;;;;;;;3.95;3.08;;;0.30;99.90;;;;;;4952474;28;20263;-73
2023/11/23 07:37:02;;;;;;;2.92;2.25;;;0.50;99.90;;;;;;4952226;28;20216;-73
2023/11/23 07:39:30;;;;;;;3.00;2.47;;;0.70;99.90;;;;;;4952915;28;20212;-72
2023/11/23 07:41:57;;;;;;;2.40;2.17;;;1.20;99.90;;;;;;4952594;28;20597;-73
2023/11/23 07:44:23;;;;;;;2.63;2.10;;;1.50;99.90;;;;;;4952650;28;20201;-72
2023/11/23 07:46:50;;;;;;;2.45;2.25;;;1.80;99.90;;;;;;4951846;28;20224;-72
2023/11/23 07:49:18;;;;;;;2.65;2.15;;;1.80;99.90;;;;;;4949580;28;20205;-73
2023/11/23 07:51:44;;;;;;;5.10;2.88;;;1.70;99.90;;;;;;4952794;28;20299;-73
2023/11/23 07:54:11;;;;;;;2.13;1.92;;;1.60;99.90;;;;;;4952390;28;20224;-73
2023/11/23 07:56:40;;;;;;;3.33;1.85;;;1.60;99.90;;;;;;4952266;28;20206;-73
2023/11/23 07:59:07;;;;;;;4.57;2.25;;;1.60;99.90;;;;;;4952194;28;20212;-72
2023/11/23 08:01:34;;;;;;;2.05;1.85;;;1.50;99.90;;;;;;4952389;28;20256;-72
2023/11/23 08:04:02;;;;;;;2.47;2.13;;;1.50;99.90;;;;;;4952373;28;20208;-73
2023/11/23 08:06:29;;;;;;;3.03;2.08;;;1.50;99.90;;;;;;4952061;28;20200;-73
2023/11/23 08:08:56;;;;;;;3.47;2.15;;;2.10;99.90;;;;;;4952374;28;20212;-71
2023/11/23 08:11:23;;;;;;;2.88;2.55;;;3.20;99.90;;;;;;4952257;28;20224;-71
2023/11/23 08:13:51;;;;;;;3.72;2.20;;;3.80;99.90;;;;;;4952638;28;20596;-72
2023/11/23 08:16:18;;;;;;;3.10;2.10;;;3.70;99.90;;;;;;4951951;28;20209;-71
2023/11/23 08:18:46;;;;;;;4.65;2.67;;;3.50;99.90;;;;;;4952399;28;20306;-72
2023/11/23 08:21:13;;;;;;;3.03;2.08;;;3.30;99.90;;;;;;4952464;28;20233;-72
2023/11/23 08:23:41;;;;;;;3.30;2.50;;;3.00;99.90;;;;;;4952142;28;20212;-72
2023/11/23 08:26:10;;;;;;;2.60;2.15;;;2.80;99.90;;;;;;4951985;28;20208;-72
2023/11/23 08:28:37;;;;;;;2.95;2.20;;;2.70;99.90;;;;;;4952362;28;20219;-72
2023/11/23 08:31:07;;;;;;;3.20;2.40;;;2.60;99.90;;;;;;4951790;28;20232;-72
2023/11/23 08:33:34;;;;;;;3.63;2.88;;;2.60;99.90;;;;;;4955224;28;20217;-72
2023/11/23 08:36:01;;;;;;;3.05;2.63;;;2.40;99.90;;;;;;4954868;28;20243;-71
2023/11/23 08:38:28;;;;;;;4.80;2.58;;;2.40;99.90;;;;;;4955954;28;20205;-72
2023/11/23 08:40:55;;;;;;;2.30;1.90;;;2.60;99.90;;;;;;4955654;28;20307;-71
2023/11/23 08:43:25;;;;;;;3.20;2.58;;;2.80;99.90;;;;;;4955962;28;20204;-72
2023/11/23 08:45:52;;;;;;;3.95;2.25;;;2.90;99.90;;;;;;4955326;28;20212;-72
2023/11/23 08:48:22;;;;;;;3.10;2.00;;;2.90;99.90;;;;;;4949256;28;20219;-72
2023/11/23 08:50:50;;;;;;;2.95;2.65;;;2.90;99.90;;;;;;4956127;28;20259;-72
2023/11/23 08:53:17;;;;;;;3.20;2.75;;;2.90;99.90;;;;;;4956709;28;20231;-72
2023/11/23 08:55:48;;;;;;;3.58;2.35;;;2.90;99.90;;;;;;4950039;28;20204;-72
2023/11/23 08:58:16;;;;;;;3.38;2.80;;;2.80;99.90;;;;;;4957863;28;20217;-70
2023/11/23 09:00:44;;;;;;;3.85;2.72;;;2.70;99.90;;;;;;4950191;28;20233;-71
2023/11/23 09:03:12;;;;;;;3.03;2.55;;;2.60;99.90;;;;;;4954081;28;20313;-71
2023/11/23 09:05:40;;;;;;;2.60;2.00;;;2.70;99.90;;;;;;4947442;28;20208;-71
2023/11/23 09:08:08;;;;;;;3.13;2.47;;;2.80;99.90;;;;;;4949069;28;20209;-71
2023/11/23 09:10:35;;;;;;;2.97;2.38;;;2.90;99.90;;;;;;4955041;28;20236;-71
2023/11/23 09:13:03;;;;;;;3.75;2.60;;;2.90;99.90;;;;;;4957755;28;20236;-71
2023/11/23 09:15:30;;;;;;;3.53;2.95;;;2.90;99.90;;;;;;4956975;28;20219;-71
2023/11/23 09:17:58;;;;;;;3.35;2.42;;;2.90;99.90;;;;;;4954692;28;20222;-72
2023/11/23 09:20:24;;;;;;;3.70;2.85;;;3.10;99.90;;;;;;4953285;28;20213;-72
2023/11/23 09:22:53;;;;;;;3.05;2.47;;;3.50;99.90;;;;;;4956177;28;20201;-72
2023/11/23 09:25:20;;;;;;;3.20;2.35;;;4.00;99.90;;;;;;4955724;28;20275;-72
2023/11/23 09:27:46;;;;;;;2.20;1.98;;;4.10;99.90;;;;;;4954574;28;20259;-73
2023/11/23 09:30:14;;;;;;;2.60;2.40;;;3.90;99.90;;;;;;4954802;28;20215;-73
2023/11/23 09:32:43;;;;;;;2.90;2.60;;;3.90;99.90;;;;;;4955067;28;20260;-73
2023/11/23 09:35:10;;;;;;;2.53;1.83;;;4.00;99.90;;;;;;4954535;28;20228;-72
2023/11/23 09:37:37;;;;;;;2.20;2.00;;;3.90;99.90;;;;;;4954593;28;20682;-72
2023/11/23 09:40:08;;;;;;;2.15;1.88;;;3.90;99.90;;;;;;4954954;28;20295;-71
2023/11/23 09:42:40;;;;;;;2.45;2.25;;;3.90;99.90;;;;;;4954965;28;20310;-73
2023/11/23 09:45:12;;;;;;;2.67;1.98;;;3.80;99.90;;;;;;4953559;28;20205;-73
2023/11/23 09:47:40;;;;;;;2.45;1.95;;;3.80;99.90;;;;;;4954436;28;20268;-73
2023/11/23 09:50:09;;;;;;;2.88;2.30;;;3.90;99.90;;;;;;4954915;28;20646;-73
2023/11/23 09:52:37;;;;;;;3.85;2.53;;;3.90;99.90;;;;;;4954500;28;20256;-73
2023/11/23 09:55:08;;;;;;;2.97;2.33;;;4.00;99.90;;;;;;4954300;28;20574;-73
2023/11/23 09:57:35;;;;;;;2.95;1.85;;;4.10;99.90;;;;;;4954117;28;20295;-73
2023/11/23 10:00:08;;;;;;;3.75;2.15;;;4.10;99.90;;;;;;4953853;28;20212;-73
2023/11/23 10:02:36;;;;;;;5.82;2.30;;;4.10;99.90;;;;;;4954716;28;20288;-73
2023/11/23 10:05:03;;;;;;;2.53;2.25;;;4.20;99.90;;;;;;4954622;28;20210;-72
2023/11/23 10:07:30;;;;;;;3.78;2.63;;;4.30;99.90;;;;;;4954383;28;20204;-73
2023/11/23 10:09:58;;;;;;;4.18;2.35;;;4.30;99.90;;;;;;4954168;28;20223;-72
2023/11/23 10:12:27;;;;;;;2.38;2.17;;;4.40;99.90;;;;;;4953945;28;20239;-73
2023/11/23 10:14:54;;;;;;;3.35;2.28;;;4.40;99.90;;;;;;4954093;28;20219;-73
2023/11/23 10:17:21;;;;;;;4.10;3.00;;;4.40;99.90;;;;;;4953890;28;20226;-73
2023/11/23 10:19:49;;;;;;;4.47;2.72;;;4.40;99.90;;;;;;4954299;28;20205;-73
2023/11/23 10:22:15;;;;;;;2.90;2.33;;;4.50;99.90;;;;;;4954178;28;20237;-73
2023/11/23 10:24:48;;;;;;;2.10;1.90;;;4.70;99.90;;;;;;4947997;28;20663;-73
2023/11/23 10:27:16;;;;;;;2.80;1.90;;;4.80;99.90;;;;;;4954019;28;20207;-73
2023/11/23 10:29:44;;;;;;;3.33;2.20;;;4.80;99.90;;;;;;4948097;28;20206;-73
2023/11/23 10:32:11;;;;;;;5.85;2.63;;;4.80;99.90;;;;;;4954352;28;20236;-72
2023/11/23 10:34:42;;;;;;;2.45;2.25;;;4.80;99.90;;;;;;4954100;28;20229;-73
2023/11/23 10:37:10;;;;;;;3.15;2.05;;;4.70;99.90;;;;;;4953548;28;20600;-72
2023/11/23 10:39:37;;;;;;;3.22;1.98;;;4.70;99.90;;;;;;4954185;28;20236;-73
2023/11/23 10:42:05;;;;;;;2.40;2.03;;;4.70;99.90;;;;;;4954020;28;20225;-72
2023/11/23 10:44:33;;;;;;;3.03;1.75;;;4.70;99.90;;;;;;4953796;28;20207;-72
2023/11/23 10:47:03;;;;;;;2.03;1.40;;;4.80;99.90;;;;;;4953572;28;20709;-72
2023/11/23 10:49:33;;;;;;;3.00;1.98;;;4.70;99.90;;;;;;4954115;28;20583;-73
2023/11/23 10:52:00;;;;;;;5.88;2.50;;;4.70;99.90;;;;;;4953886;28;20228;-73
2023/11/23 10:54:27;;;;;;;2.85;2.05;;;4.70;99.90;;;;;;4953486;28;20231;-73
2023/11/23 10:56:58;;;;;;;2.03;1.90;;;4.70;99.90;;;;;;4953344;28;20215;-73
2023/11/23 10:59:26;;;;;;;2.40;2.03;;;4.70;99.90;;;;;;4953642;28;20221;-73
2023/11/23 11:01:57;;;;;;;2.80;2.20;;;4.70;99.90;;;;;;4953618;28;20220;-73
2023/11/23 11:04:29;;;;;;;2.53;2.15;;;4.70;99.90;;;;;;4953381;28;20215;-73
2023/11/23 11:06:58;;;;;;;3.08;2.22;;;4.70;99.90;;;;;;4953313;28;20582;-73
2023/11/23 11:09:26;;;;;;;4.22;2.95;;;4.70;99.90;;;;;;4953458;28;20217;-73
2023/11/23 11:11:55;;;;;;;2.25;1.77;;;4.70;99.90;;;;;;4953427;28;20226;-72
2023/11/23 11:14:31;;;;;;;1.85;1.50;;;4.80;99.90;;;;;;4953151;28;20607;-72
2023/11/23 11:17:01;;;;;;;3.15;2.28;;;4.90;99.90;;;;;;4953138;28;20225;-72
2023/11/23 11:19:29;;;;;;;5.32;2.50;;;5.00;99.90;;;;;;4952992;28;20296;-72
2023/11/23 11:22:00;;;;;;;4.40;2.53;;;4.90;99.90;;;;;;4953252;28;20243;-72
2023/11/23 11:24:26;;;;;;;2.47;2.05;;;4.90;99.90;;;;;;4947947;28;20200;-72
2023/11/23 11:27:01;;;;;;;4.38;2.17;;;5.00;99.90;;;;;;4952790;28;20214;-72
2023/11/23 11:29:30;;;;;;;2.55;1.98;;;5.10;99.90;;;;;;4952791;28;20206;-72
2023/11/23 11:31:57;;;;;;;2.15;1.60;;;5.20;99.90;;;;;;4952696;28;20667;-72
2023/11/23 11:34:26;;;;;;;2.72;1.70;;;5.20;99.90;;;;;;4952066;28;20285;-72
2023/11/23 11:36:59;;;;;;;2.17;1.80;;;5.30;99.90;;;;;;4952523;28;20215;-72
2023/11/23 11:39:31;;;;;;;2.58;1.83;;;5.40;99.90;;;;;;4952528;28;20661;-72
2023/11/23 11:41:59;;;;;;;2.30;1.80;;;5.50;99.90;;;;;;4952980;28;20225;-72
2023/11/23 11:44:26;;;;;;;3.08;2.45;;;5.50;99.90;;;;;;4952678;28;20309;-72
2023/11/23 11:46:53;;;;;;;2.35;2.10;;;5.50;99.90;;;;;;4952410;28;20742;-72
2023/11/23 11:49:20;;;;;;;1.95;1.60;;;5.60;99.90;;;;;;4952965;28;20207;-72
2023/11/23 11:51:47;;;;;;;2.90;2.10;;;5.60;99.90;;;;;;4952851;28;20308;-72
2023/11/23 11:54:15;;;;;;;1.90;1.42;;;5.70;99.90;;;;;;4952620;28;20241;-72
2023/11/23 11:56:41;;;;;;;1.80;1.60;;;5.70;99.90;;;;;;4952142;28;20290;-72
2023/11/23 11:59:12;;;;;;;2.75;1.95;;;5.80;99.90;;;;;;4952562;28;20211;-72
2023/11/23 12:01:38;;;;;;;3.60;1.85;;;5.90;99.90;;;;;;4952301;28;20717;-72
2023/11/23 12:04:07;;;;;;;1.70;1.50;;;5.90;99.90;;;;;;4952697;28;20209;-72
2023/11/23 12:06:35;;;;;;;1.90;1.70;;;6.00;99.90;;;;;;4951882;28;20224;-72
2023/11/23 12:09:02;;;;;;;1.80;1.60;;;6.10;99.90;;;;;;4951845;28;20212;-72
2023/11/23 12:11:30;;;;;;;1.60;1.50;;;6.20;99.90;;;;;;4952276;28;20253;-73
2023/11/23 12:13:57;;;;;;;2.38;1.50;;;6.20;99.90;;;;;;4952279;28;20221;-73
2023/11/23 12:16:33;;;;;;;4.05;1.80;;;6.20;99.90;;;;;;4951779;28;20216;-73
2023/11/23 12:19:00;;;;;;;2.22;1.60;;;6.30;99.90;;;;;;4952395;28;20261;-73
2023/11/23 12:21:28;;;;;;;2.15;1.92;;;6.30;99.90;;;;;;4951924;28;20265;-73
2023/11/23 12:23:54;;;;;;;1.25;1.15;;;6.40;99.90;;;;;;4952138;28;20201;-71
2023/11/23 12:26:21;;;;;;;1.48;1.35;;;6.50;99.90;;;;;;4951771;28;20239;-72
2023/11/23 12:28:50;;;;;;;2.40;1.98;;;6.50;99.90;;;;;;4952310;28;20227;-72
2023/11/23 12:31:17;;;;;;;2.53;1.90;;;6.60;99.90;;;;;;4952952;28;20716;-72
2023/11/23 12:33:44;;;;;;;1.75;1.65;;;6.70;99.90;;;;;;4952532;28;20208;-72
2023/11/23 12:36:12;;;;;;;1.50;1.35;;;6.70;99.90;;;;;;4952008;28;20231;-71
2023/11/23 12:38:38;;;;;;;1.70;1.10;;;6.70;99.90;;;;;;4951905;28;20202;-71
2023/11/23 12:41:06;;;;;;;1.70;1.60;;;6.70;99.90;;;;;;4952333;28;20229;-71
2023/11/23 12:43:34;;;;;;;1.80;1.50;;;6.60;99.90;;;;;;4952034;28;20680;-71
2023/11/23 12:46:02;;;;;;;1.95;1.40;;;6.70;99.90;;;;;;4951400;28;20206;-72
2023/11/23 12:48:29;;;;;;;1.38;1.13;;;6.80;99.90;;;;;;4952056;28;20216;-72
2023/11/23 12:50:56;;;;;;;1.33;1.23;;;6.90;99.90;;;;;;4957297;28;20331;-72
2023/11/23 12:53:23;;;;;;;1.75;1.40;;;6.90;99.90;;;;;;4959501;28;20236;-72
2023/11/23 12:55:49;;;;;;;2.38;1.48;;;6.90;99.90;;;;;;4969675;28;20227;-72
2023/11/23 12:58:18;;;;;;;2.08;1.55;;;7.00;99.90;;;;;;4966024;28;20206;-71
2023/11/23 13:00:47;;;;;;;1.30;1.20;;;6.90;99.90;;;;;;4943208;28;20721;-72
2023/11/23 13:03:15;;;;;;;3.05;1.33;;;6.90;99.90;;;;;;4948458;28;20209;-72
2023/11/23 13:05:41;;;;;;;1.20;1.10;;;6.90;99.90;;;;;;4949674;28;20298;-72
2023/11/23 13:08:08;;;;;;;3.10;1.70;;;6.80;99.90;;;;;;4951326;28;20292;-72
2023/11/23 13:10:37;;;;;;;2.40;1.50;;;6.80;99.90;;;;;;4951418;28;20215;-72
2023/11/23 13:13:05;;;;;;;1.30;1.10;;;6.80;99.90;;;;;;4952086;28;20208;-73
2023/11/23 13:15:33;;;;;;;2.15;1.48;;;6.80;99.90;;;;;;4950884;28;20317;-72
2023/11/23 13:18:00;;;;;;;1.10;1.00;;;6.80;99.90;;;;;;4951875;28;20205;-72
2023/11/23 13:20:28;;;;;;;1.40;1.20;;;6.80;99.90;;;;;;4954154;28;20380;-72
2023/11/23 13:22:55;;;;;;;1.58;1.20;;;6.90;99.90;;;;;;4954812;28;20211;-72
2023/11/23 13:25:21;;;;;;;2.45;1.75;;;6.90;99.90;;;;;;4954722;28;20204;-71
2023/11/23 13:27:55;;;;;;;1.23;1.02;;;6.90;99.90;;;;;;4955162;28;20238;-73
2023/11/23 13:30:24;;;;;;;1.20;1.00;;;6.90;99.90;;;;;;4954982;28;20211;-73
2023/11/23 13:32:51;;;;;;;1.95;1.30;;;6.80;99.90;;;;;;4953516;28;20214;-73
2023/11/23 13:35:18;;;;;;;1.75;1.20;;;6.80;99.90;;;;;;4954591;28;20226;-72
2023/11/23 13:37:46;;;;;;;1.10;1.00;;;6.80;99.90;;;;;;4951261;28;20595;-72
2023/11/23 13:40:13;;;;;;;1.58;1.42;;;6.90;99.90;;;;;;4955356;28;20214;-73
2023/11/23 13:42:41;;;;;;;1.45;1.35;;;6.90;99.90;;;;;;4953312;28;20275;-73
2023/11/23 13:45:08;;;;;;;1.70;1.08;;;6.90;99.90;;;;;;4954697;28;20209;-73
2023/11/23 13:47:36;;;;;;;1.20;0.93;;;7.00;99.90;;;;;;4954398;28;20211;-72
2023/11/23 13:50:07;;;;;;;1.20;1.10;;;7.00;99.90;;;;;;4955216;28;20213;-73
2023/11/23 13:52:35;;;;;;;1.15;1.05;;;7.00;99.90;;;;;;4954809;28;20255;-73
2023/11/23 13:55:05;;;;;;;1.35;1.25;;;7.10;99.90;;;;;;4960560;28;20230;-73
2023/11/23 13:57:31;;;;;;;1.20;1.10;;;7.00;99.90;;;;;;4966667;28;20295;-73
2023/11/23 14:00:00;;;;;;;1.23;0.90;;;7.00;99.90;;;;;;4968490;28;20336;-73
2023/11/23 14:02:26;;;;;;;1.02;0.90;;;7.00;99.90;;;;;;4966552;28;20230;-72
2023/11/23 14:04:55;;;;;;;1.20;0.90;;;7.00;99.90;;;;;;4947901;28;20208;-72
2023/11/23 14:07:22;;;;;;;1.70;1.10;;;6.90;99.90;;;;;;4954200;28;20215;-72
2023/11/23 14:09:48;;;;;;;1.63;1.00;;;6.90;99.90;;;;;;4954789;28;20295;-73
2023/11/23 14:12:16;;;;;;;1.48;0.80;;;6.90;99.90;;;;;;4954379;28;20720;-72
2023/11/23 14:14:43;;;;;;;0.80;0.70;;;6.90;99.90;;;;;;4952629;28;20627;-72
2023/11/23 14:17:12;;;;;;;1.20;1.00;;;6.90;99.90;;;;;;4954429;28;20399;-72
2023/11/23 14:19:39;;;;;;;1.10;0.80;;;7.00;99.90;;;;;;4954247;28;20212;-72
2023/11/23 14:22:06;;;;;;;1.20;0.90;;;6.90;99.90;;;;;;4953919;28;20239;-72
2023/11/23 14:24:33;;;;;;;1.13;0.90;;;6.90;99.90;;;;;;4952720;28;20301;-72
2023/11/23 14:27:00;;;;;;;0.95;0.85;;;6.80;99.90;;;;;;4953649;28;20293;-72
2023/11/23 14:29:29;;;;;;;1.50;1.33;;;6.80;99.90;;;;;;4945316;28;20611;-72
2023/11/23 14:31:56;;;;;;;1.05;0.95;;;6.70;99.90;;;;;;4947108;28;20227;-72
2023/11/23 14:34:23;;;;;;;1.08;0.80;;;6.70;99.90;;;;;;4953267;28;20311;-72
2023/11/23 14:36:52;;;;;;;1.60;1.00;;;6.60;99.90;;;;;;4952485;28;20315;-72
2023/11/23 14:39:23;;;;;;;1.48;0.93;;;6.60;99.90;;;;;;4953298;28;20219;-72
2023/11/23 14:41:50;;;;;;;1.20;1.10;;;6.50;99.90;;;;;;4953149;28;20321;-72
2023/11/23 14:44:20;;;;;;;0.80;0.75;;;6.50;99.90;;;;;;4953422;28;20231;-72
2023/11/23 14:46:49;;;;;;;0.90;0.80;;;6.50;99.90;;;;;;4956809;28;20295;-72
2023/11/23 14:49:17;;;;;;;1.00;0.90;;;6.40;99.90;;;;;;4957173;28;20392;-72
2023/11/23 14:51:46;;;;;;;1.23;1.10;;;6.40;99.90;;;;;;4951252;28;20231;-73
2023/11/23 14:54:12;;;;;;;1.00;0.90;;;6.30;99.90;;;;;;4953377;28;20210;-71
2023/11/23 14:56:40;;;;;;;1.10;1.00;;;6.30;99.90;;;;;;4952031;28;20229;-71
2023/11/23 14:59:07;;;;;;;1.20;0.88;;;6.30;99.90;;;;;;4951832;28;20891;-71
2023/11/23 15:01:35;;;;;;;0.95;0.80;;;6.30;99.90;;;;;;4951465;28;20496;-72
2023/11/23 15:04:03;;;;;;;1.10;1.00;;;6.20;99.90;;;;;;4952908;28;20247;-72
2023/11/23 15:06:30;;;;;;;4.40;1.00;;;6.20;99.90;;;;;;4952395;28;20683;-72
2023/11/23 15:08:57;;;;;;;0.80;0.70;;;6.20;99.90;;;;;;4952506;28;20635;-72
2023/11/23 15:11:24;;;;;;;1.10;1.00;;;6.20;99.90;;;;;;4952870;28;20786;-73
2023/11/23 15:13:50;;;;;;;1.50;0.95;;;6.10;99.90;;;;;;4952436;28;20213;-73
2023/11/23 15:16:18;;;;;;;2.00;1.38;;;6.10;99.90;;;;;;4952051;28;20222;-72
2023/11/23 15:18:45;;;;;;;1.35;1.20;;;6.10;99.90;;;;;;4950944;28;20243;-72
2023/11/23 15:21:13;;;;;;;1.60;1.10;;;6.10;99.90;;;;;;4952629;28;20257;-72
2023/11/23 15:23:41;;;;;;;1.42;1.15;;;6.10;99.90;;;;;;4952741;28;20302;-72
2023/11/23 15:26:10;;;;;;;1.23;0.93;;;6.10;99.90;;;;;;4951515;28;20211;-72
2023/11/23 15:28:38;;;;;;;1.10;0.90;;;6.10;99.90;;;;;;4953039;28;20248;-72
2023/11/23 15:31:06;;;;;;;2.15;1.30;;;6.10;99.90;;;;;;4953033;28;20318;-71
2023/11/23 15:33:35;;;;;;;1.20;0.90;;;6.20;99.90;;;;;;4953576;28;20269;-72
2023/11/23 15:36:05;;;;;;;1.75;1.15;;;6.20;99.90;;;;;;4950736;28;20303;-72
2023/11/23 15:38:34;;;;;;;1.17;1.02;;;6.30;99.90;;;;;;4953269;28;20254;-71
2023/11/23 15:41:02;;;;;;;1.25;1.08;;;6.20;99.90;;;;;;4959350;28;20232;-73
2023/11/23 15:43:29;;;;;;;2.28;1.00;;;6.20;99.90;;;;;;4952027;28;20215;-72
2023/11/23 15:45:55;;;;;;;1.08;0.98;;;6.10;99.90;;;;;;4952128;28;20209;-75
2023/11/23 15:48:22;;;;;;;0.80;0.70;;;6.10;99.90;;;;;;4952277;28;20265;-74
2023/11/23 15:50:49;;;;;;;1.23;1.13;;;6.10;99.90;;;;;;4951883;28;20238;-73
2023/11/23 15:53:16;;;;;;;0.80;0.70;;;6.00;99.90;;;;;;4952651;28;20313;-74
2023/11/23 15:55:46;;;;;;;1.38;1.00;;;6.00;99.90;;;;;;4952188;28;20255;-73
2023/11/23 15:58:13;;;;;;;1.00;0.82;;;6.10;99.90;;;;;;4953160;28;20219;-75
2023/11/23 16:00:40;;;;;;;1.10;1.00;;;6.00;99.90;;;;;;4955538;28;20325;-73
2023/11/23 16:03:07;;;;;;;2.15;1.50;;;6.00;99.90;;;;;;4961005;28;20208;-75
2023/11/23 16:05:34;;;;;;;1.75;1.00;;;5.90;99.90;;;;;;4953743;28;20216;-74
2023/11/23 16:08:01;;;;;;;1.10;1.00;;;5.90;99.90;;;;;;4955639;28;20218;-74
2023/11/23 16:10:30;;;;;;;2.35;0.98;;;5.90;99.90;;;;;;4956637;28;20206;-74
2023/11/23 16:12:58;;;;;;;1.30;1.20;;;5.90;99.90;;;;;;4959362;28;20213;-74
2023/11/23 16:15:26;;;;;;;1.10;0.93;;;5.90;99.90;;;;;;4954506;28;20226;-73
2023/11/23 16:17:54;;;;;;;0.98;0.93;;;5.90;99.90;;;;;;4945972;28;20222;-75
2023/11/23 16:20:21;;;;;;;1.30;1.20;;;5.80;99.90;;;;;;4952438;28;20211;-74
2023/11/23 16:22:49;;;;;;;3.35;1.30;;;5.80;99.90;;;;;;4947168;28;20215;-74
2023/11/23 16:25:16;;;;;;;1.02;0.90;;;5.80;99.90;;;;;;4951903;28;20221;-74
2023/11/23 16:27:42;;;;;;;1.33;1.08;;;5.80;99.90;;;;;;4951650;28;20214;-72
2023/11/23 16:30:11;;;;;;;0.93;0.77;;;5.80;99.90;;;;;;4952374;28;20679;-73
2023/11/23 16:32:38;;;;;;;1.23;1.00;;;5.80;99.90;;;;;;4952191;28;20239;-72
2023/11/23 16:35:10;;;;;;;1.38;1.20;;;5.80;99.90;;;;;;4946585;28;20589;-73
2023/11/23 16:37:37;;;;;;;1.88;1.50;;;5.80;99.90;;;;;;4951718;28;20681;-73
2023/11/23 16:40:09;;;;;;;1.60;1.23;;;5.80;99.90;;;;;;4951753;28;20702;-73
2023/11/23 16:42:36;;;;;;;1.10;0.88;;;5.80;99.90;;;;;;4952365;28;20231;-73
2023/11/23 16:45:03;;;;;;;1.60;1.33;;;5.80;99.90;;;;;;4951708;28;20224;-73
2023/11/23 16:47:31;;;;;;;1.65;1.15;;;5.80;99.90;;;;;;4952005;28;20207;-73
2023/11/23 16:49:59;;;;;;;1.80;1.30;;;5.80;99.90;;;;;;4952027;28;20218;-73
2023/11/23 16:52:28;;;;;;;1.45;0.90;;;5.80;99.90;;;;;;4951941;28;20235;-73
2023/11/23 16:54:55;;;;;;;1.42;0.80;;;5.80;99.90;;;;;;4955056;28;20206;-73
2023/11/23 16:57:22;;;;;;;1.52;1.10;;;5.80;99.90;;;;;;4955513;28;20229;-74
2023/11/23 16:59:49;;;;;;;1.20;1.10;;;5.80;99.90;;;;;;4955751;28;20215;-74
2023/11/23 17:02:15;;;;;;;1.95;1.45;;;5.80;99.90;;;;;;4955656;28;20245;-74
2023/11/23 17:04:46;;;;;;;1.65;1.27;;;5.80;99.90;;;;;;4955431;28;20221;-74
2023/11/23 17:07:13;;;;;;;1.60;1.50;;;5.90;99.90;;;;;;4951311;28;20455;-73
2023/11/23 17:09:40;;;;;;;1.60;1.50;;;5.90;99.90;;;;;;4955629;28;20215;-73
2023/11/23 17:12:08;;;;;;;1.35;1.00;;;5.90;99.90;;;;;;4955218;28;20245;-73
2023/11/23 17:14:36;;;;;;;1.55;1.20;;;5.90;99.90;;;;;;4955654;28;20300;-74